Strona główna
METAR-TAF:

METAR-TAF

Lotnisko :

Derby, Australia

Szerokość geograficzna: 17-22-12S, Długość geograficzna: 123-39-38E, wysokość: 7 m

Aktualna obserwacja pogody

Raport powstał 36 minut temu, godzina 11:00 UTC
Wiatr 4 kt od północno-północny zachód
Temperatura 27°C
Wilgotność 32%
Ciśnienie 1013 hPa
Widzialność 10 km lub więcej
Zachmurzenie całkowite na wysokości 10000 ft

METAR: YDBY 181100Z AUTO 34004KT 9999 // OVC100 27/09 Q1013

czas: 19:36 (11:36 UTC)


TAF: brakujący

Obserwacja i prognoza pogody dla ponad 4000 lotnisk (raport METAR i TAF).

Dostępne stacje oznaczono żółtymi i czerwonymi punktami na mapie.

Najedź kursorem aby zobaczyć nazwę stacji.

Kliknij aby zobaczyć obserwacje i prognozy pogody.

Aby zmienić mapę: kliknij na zielony przycisk z czarnym krzyżykiem, aby powiększyć; na zielony przycisk z myślnikiem, aby pomniejszyć; na zielone strzałki, aby przejść do map sąsiednich.


METAR-TAF: